Nahma, MI

3:27 AM EDT on August 29, 2015 (GMT -0400)
Garden Corners, Michigan | | Change Station
CLOSE
Current Station
Personal Weather Station
Location: Garden Corners, MI
Elevation: 587 ft
Nearby Weather Stations

Elev 587 ft 45.90 °N, 86.55 °W | Updated 2 minutes ago

Mostly Cloudy
Mostly Cloudy
64.6 °F
Feels Like 64.6 °F
N
7.0
Wind Variable Wind from WSW
Gusts 13.0 mph

Today
High -- | Low -- °F
--% Chance of Precip.
Yesterday
High -- | Low -- °F
Precip. -- in
7:03 AM 8:30 PM
Full, 100% visible
Pressure 30.07 in
Visibility 10.0 miles
Clouds Scattered Clouds 2400 ft
Overcast 3000 ft
Dew Point 62 °F
Humidity 90%
Rainfall 0.00 in
Snow Depth Not available.
UV 0 out of 12
Pollen 10.10 out of 12
Air Quality Not available.
Flu Activity Not available.
METAR KESC 290715Z AUTO 24008KT 10SM SCT024 OVC030 17/14 A3007 RMK AO1
Pressure 30.07 in
Visibility 10.0 miles
Clouds Scattered Clouds 2400 ft
Overcast 3000 ft
Dew Point 62 °F
Humidity 90%
Rainfall 0.00 in
Snow Depth Not available.
UV 0 out of 12
Pollen 10.10 out of 12
Air Quality Not available.
Flu Activity Not available.
METAR KESC 290715Z AUTO 24008KT 10SM SCT024 OVC030 17/14 A3007 RMK AO1

10-Day Weather Forecast

×

Almanac

Astronomy

Aug. 29, 2015 Rise Set
Actual Time
Civil Twilight
Nautical Twilight
Astronomical Twilight
Moon
Length of Visible Light
Length of Day
Tomorrow will be .
, % of the Moon is Illuminated

Today's Extremes

State Highs State Lows

Community

WunderPhotos

Upload Photos

1,850,633 photos uploaded!

WunderBlogs® & News

Nearby

Air Quality

  Air Quality AQ Index Pollutant
Not available.

Snow Depth

Station Depth Elevation

Earthquake Activity

City Distance Mag. Time & Date
Minimum magnitude displayed is 2.5.

Coastal Water Temperatures

Place Temperature

Stations

Nearby Weather Stations

Station Location Temp. Windchill Dew Point Humidity Wind Precip. Elev Updated Type